sensor_id;sensor_type;location;lat;lon;timestamp;temperature;humidity
40538;DHT22;27925;41.874;12.526;2022-12-11T00:00:18;15.10;95.80
40538;DHT22;27925;41.874;12.526;2022-12-11T00:02:44;15.10;95.90
40538;DHT22;27925;41.874;12.526;2022-12-11T00:05:10;15.10;96.00
40538;DHT22;27925;41.874;12.526;2022-12-11T00:07:36;15.10;96.00
40538;DHT22;27925;41.874;12.526;2022-12-11T00:10:02;15.10;96.00
40538;DHT22;27925;41.874;12.526;2022-12-11T00:12:29;15.10;96.00
40538;DHT22;27925;41.874;12.526;2022-12-11T00:14:55;15.10;96.00
40538;DHT22;27925;41.874;12.526;2022-12-11T00:17:21;15.10;96.00
40538;DHT22;27925;41.874;12.526;2022-12-11T00:19:47;15.10;96.00
40538;DHT22;27925;41.874;12.526;2022-12-11T00:22:12;15.10;96.00
40538;DHT22;27925;41.874;12.526;2022-12-11T00:24:38;15.10;96.00
40538;DHT22;27925;41.874;12.526;2022-12-11T00:27:04;15.10;95.90
40538;DHT22;27925;41.874;12.526;2022-12-11T00:29:29;15.10;95.90
40538;DHT22;27925;41.874;12.526;2022-12-11T00:31:55;15.10;95.90
40538;DHT22;27925;41.874;12.526;2022-12-11T00:34:21;15.00;95.90
40538;DHT22;27925;41.874;12.526;2022-12-11T00:36:47;15.10;96.00
40538;DHT22;27925;41.874;12.526;2022-12-11T00:39:13;15.10;96.00
40538;DHT22;27925;41.874;12.526;2022-12-11T00:41:38;15.10;96.00
40538;DHT22;27925;41.874;12.526;2022-12-11T00:44:04;15.10;96.00
40538;DHT22;27925;41.874;12.526;2022-12-11T00:46:30;15.10;96.10
40538;DHT22;27925;41.874;12.526;2022-12-11T00:48:55;15.10;96.10
40538;DHT22;27925;41.874;12.526;2022-12-11T00:51:21;15.00;96.10
40538;DHT22;27925;41.874;12.526;2022-12-11T00:53:47;15.00;96.00
40538;DHT22;27925;41.874;12.526;2022-12-11T00:56:15;15.00;96.00
40538;DHT22;27925;41.874;12.526;2022-12-11T00:58:41;14.90;96.10
40538;DHT22;27925;41.874;12.526;2022-12-11T01:01:13;15.00;96.20
40538;DHT22;27925;41.874;12.526;2022-12-11T01:03:39;14.90;96.10
40538;DHT22;27925;41.874;12.526;2022-12-11T01:06:05;15.00;96.20
40538;DHT22;27925;41.874;12.526;2022-12-11T01:08:31;15.00;96.10
40538;DHT22;27925;41.874;12.526;2022-12-11T01:11:05;15.00;96.10
40538;DHT22;27925;41.874;12.526;2022-12-11T01:13:31;15.00;96.00
40538;DHT22;27925;41.874;12.526;2022-12-11T01:15:57;15.00;96.20
40538;DHT22;27925;41.874;12.526;2022-12-11T01:18:23;15.00;96.10
40538;DHT22;27925;41.874;12.526;2022-12-11T01:20:49;15.00;96.10
40538;DHT22;27925;41.874;12.526;2022-12-11T01:23:15;15.00;96.10
40538;DHT22;27925;41.874;12.526;2022-12-11T01:25:42;15.00;96.10
40538;DHT22;27925;41.874;12.526;2022-12-11T01:28:09;15.00;96.10
40538;DHT22;27925;41.874;12.526;2022-12-11T01:30:35;15.00;96.10
40538;DHT22;27925;41.874;12.526;2022-12-11T01:33:01;15.00;96.10
40538;DHT22;27925;41.874;12.526;2022-12-11T01:35:27;15.00;96.10
40538;DHT22;27925;41.874;12.526;2022-12-11T01:37:54;15.00;96.10
40538;DHT22;27925;41.874;12.526;2022-12-11T01:40:21;15.00;96.10
40538;DHT22;27925;41.874;12.526;2022-12-11T01:42:46;15.00;96.10
40538;DHT22;27925;41.874;12.526;2022-12-11T01:45:26;15.00;96.10
40538;DHT22;27925;41.874;12.526;2022-12-11T01:48:08;14.90;96.00
40538;DHT22;27925;41.874;12.526;2022-12-11T01:50:43;14.90;96.20
40538;DHT22;27925;41.874;12.526;2022-12-11T01:53:12;14.90;96.20
40538;DHT22;27925;41.874;12.526;2022-12-11T01:55:40;14.90;96.20
40538;DHT22;27925;41.874;12.526;2022-12-11T01:58:07;14.80;96.20
40538;DHT22;27925;41.874;12.526;2022-12-11T02:00:33;14.80;96.30
40538;DHT22;27925;41.874;12.526;2022-12-11T02:02:59;14.80;96.20
40538;DHT22;27925;41.874;12.526;2022-12-11T02:05:25;14.80;96.30
40538;DHT22;27925;41.874;12.526;2022-12-11T02:07:54;14.80;96.30
40538;DHT22;27925;41.874;12.526;2022-12-11T02:14:00;14.80;96.20
40538;DHT22;27925;41.874;12.526;2022-12-11T02:16:20;14.70;96.20
40538;DHT22;27925;41.874;12.526;2022-12-11T02:21:47;14.70;96.20
40538;DHT22;27925;41.874;12.526;2022-12-11T02:24:42;14.70;96.20
40538;DHT22;27925;41.874;12.526;2022-12-11T02:32:25;14.60;96.30
40538;DHT22;27925;41.874;12.526;2022-12-11T02:37:30;14.60;96.50
40538;DHT22;27925;41.874;12.526;2022-12-11T02:39:57;14.60;96.40
40538;DHT22;27925;41.874;12.526;2022-12-11T02:42:27;14.70;96.50
40538;DHT22;27925;41.874;12.526;2022-12-11T02:44:55;14.70;96.50
40538;DHT22;27925;41.874;12.526;2022-12-11T02:47:24;14.60;96.40
40538;DHT22;27925;41.874;12.526;2022-12-11T02:49:52;14.70;96.50
40538;DHT22;27925;41.874;12.526;2022-12-11T02:52:21;14.60;96.40
40538;DHT22;27925;41.874;12.526;2022-12-11T02:54:49;14.50;96.50
40538;DHT22;27925;41.874;12.526;2022-12-11T02:59:47;14.50;96.70
40538;DHT22;27925;41.874;12.526;2022-12-11T03:02:14;14.40;96.70
40538;DHT22;27925;41.874;12.526;2022-12-11T03:04:42;14.40;96.80
40538;DHT22;27925;41.874;12.526;2022-12-11T03:07:20;14.30;96.70
40538;DHT22;27925;41.874;12.526;2022-12-11T03:09:48;14.30;96.80
40538;DHT22;27925;41.874;12.526;2022-12-11T03:12:21;14.30;96.80
40538;DHT22;27925;41.874;12.526;2022-12-11T03:14:49;14.20;96.70
40538;DHT22;27925;41.874;12.526;2022-12-11T03:23:17;14.20;96.80
40538;DHT22;27925;41.874;12.526;2022-12-11T03:25:56;14.20;96.80
40538;DHT22;27925;41.874;12.526;2022-12-11T03:28:54;14.20;96.80
40538;DHT22;27925;41.874;12.526;2022-12-11T03:34:00;14.20;96.90
40538;DHT22;27925;41.874;12.526;2022-12-11T03:36:33;14.10;96.90
40538;DHT22;27925;41.874;12.526;2022-12-11T03:39:13;14.10;97.00
40538;DHT22;27925;41.874;12.526;2022-12-11T03:41:41;14.00;96.90
40538;DHT22;27925;41.874;12.526;2022-12-11T03:44:08;14.00;97.10
40538;DHT22;27925;41.874;12.526;2022-12-11T03:46:37;14.00;97.10
40538;DHT22;27925;41.874;12.526;2022-12-11T03:49:15;14.00;97.10
40538;DHT22;27925;41.874;12.526;2022-12-11T03:51:44;13.90;97.00
40538;DHT22;27925;41.874;12.526;2022-12-11T03:54:11;13.90;97.20
40538;DHT22;27925;41.874;12.526;2022-12-11T03:56:38;13.80;97.20
40538;DHT22;27925;41.874;12.526;2022-12-11T03:59:05;13.80;97.30
40538;DHT22;27925;41.874;12.526;2022-12-11T04:01:30;13.80;97.20
40538;DHT22;27925;41.874;12.526;2022-12-11T04:03:56;13.80;97.20
40538;DHT22;27925;41.874;12.526;2022-12-11T04:06:22;13.80;97.30
40538;DHT22;27925;41.874;12.526;2022-12-11T04:08:48;13.80;97.20
40538;DHT22;27925;41.874;12.526;2022-12-11T04:11:13;13.80;97.30
40538;DHT22;27925;41.874;12.526;2022-12-11T04:13:57;13.70;97.30
40538;DHT22;27925;41.874;12.526;2022-12-11T04:16:41;13.70;97.10
40538;DHT22;27925;41.874;12.526;2022-12-11T04:19:08;13.60;97.20
40538;DHT22;27925;41.874;12.526;2022-12-11T04:21:53;13.70;97.30
40538;DHT22;27925;41.874;12.526;2022-12-11T04:24:37;13.60;97.20
40538;DHT22;27925;41.874;12.526;2022-12-11T04:27:03;13.60;97.30
40538;DHT22;27925;41.874;12.526;2022-12-11T04:29:28;13.60;97.40
40538;DHT22;27925;41.874;12.526;2022-12-11T04:31:54;13.60;97.40
40538;DHT22;27925;41.874;12.526;2022-12-11T04:34:20;13.60;97.40
40538;DHT22;27925;41.874;12.526;2022-12-11T04:36:46;13.60;97.40
40538;DHT22;27925;41.874;12.526;2022-12-11T04:39:11;13.60;97.50
40538;DHT22;27925;41.874;12.526;2022-12-11T04:41:37;13.50;97.40
40538;DHT22;27925;41.874;12.526;2022-12-11T04:44:04;13.50;97.40
40538;DHT22;27925;41.874;12.526;2022-12-11T04:46:29;13.50;97.40
40538;DHT22;27925;41.874;12.526;2022-12-11T04:48:55;13.50;97.40
40538;DHT22;27925;41.874;12.526;2022-12-11T04:51:21;13.50;97.50
40538;DHT22;27925;41.874;12.526;2022-12-11T04:53:47;13.40;97.30
40538;DHT22;27925;41.874;12.526;2022-12-11T04:56:14;13.40;97.40
40538;DHT22;27925;41.874;12.526;2022-12-11T04:58:41;13.40;97.40
40538;DHT22;27925;41.874;12.526;2022-12-11T05:01:12;13.40;97.50
40538;DHT22;27925;41.874;12.526;2022-12-11T05:03:39;13.40;97.50
40538;DHT22;27925;41.874;12.526;2022-12-11T05:06:06;13.40;97.60
40538;DHT22;27925;41.874;12.526;2022-12-11T05:08:34;13.30;97.40
40538;DHT22;27925;41.874;12.526;2022-12-11T05:11:03;13.30;97.40
40538;DHT22;27925;41.874;12.526;2022-12-11T05:13:30;13.30;97.30
40538;DHT22;27925;41.874;12.526;2022-12-11T05:15:56;13.30;97.40
40538;DHT22;27925;41.874;12.526;2022-12-11T05:18:22;13.30;97.30
40538;DHT22;27925;41.874;12.526;2022-12-11T05:21:03;13.30;97.30
40538;DHT22;27925;41.874;12.526;2022-12-11T05:23:29;13.30;97.40
40538;DHT22;27925;41.874;12.526;2022-12-11T05:26:00;13.30;97.30
40538;DHT22;27925;41.874;12.526;2022-12-11T05:28:28;13.30;97.30
40538;DHT22;27925;41.874;12.526;2022-12-11T05:30:59;13.20;97.30
40538;DHT22;27925;41.874;12.526;2022-12-11T05:33:25;13.20;97.40
40538;DHT22;27925;41.874;12.526;2022-12-11T05:35:51;13.20;97.20
40538;DHT22;27925;41.874;12.526;2022-12-11T05:38:17;13.20;97.20
40538;DHT22;27925;41.874;12.526;2022-12-11T05:40:43;13.20;97.40
40538;DHT22;27925;41.874;12.526;2022-12-11T05:43:09;13.20;97.30
40538;DHT22;27925;41.874;12.526;2022-12-11T05:45:34;13.20;97.40
40538;DHT22;27925;41.874;12.526;2022-12-11T05:48:00;13.20;97.40
40538;DHT22;27925;41.874;12.526;2022-12-11T05:50:26;13.20;97.30
40538;DHT22;27925;41.874;12.526;2022-12-11T05:52:52;13.30;97.30
40538;DHT22;27925;41.874;12.526;2022-12-11T05:55:17;13.30;97.20
40538;DHT22;27925;41.874;12.526;2022-12-11T05:57:43;13.30;97.00
40538;DHT22;27925;41.874;12.526;2022-12-11T06:00:11;13.40;97.00
40538;DHT22;27925;41.874;12.526;2022-12-11T06:02:37;13.30;97.00
40538;DHT22;27925;41.874;12.526;2022-12-11T06:05:02;13.30;97.00
40538;DHT22;27925;41.874;12.526;2022-12-11T06:07:28;13.30;96.90
40538;DHT22;27925;41.874;12.526;2022-12-11T06:09:54;13.40;96.80
40538;DHT22;27925;41.874;12.526;2022-12-11T06:12:19;13.40;96.70
40538;DHT22;27925;41.874;12.526;2022-12-11T06:14:45;13.30;96.50
40538;DHT22;27925;41.874;12.526;2022-12-11T06:17:11;13.30;96.60
40538;DHT22;27925;41.874;12.526;2022-12-11T06:19:36;13.30;96.50
40538;DHT22;27925;41.874;12.526;2022-12-11T06:22:02;13.30;96.50
40538;DHT22;27925;41.874;12.526;2022-12-11T06:24:28;13.30;96.50
40538;DHT22;27925;41.874;12.526;2022-12-11T06:26:54;13.30;96.40
40538;DHT22;27925;41.874;12.526;2022-12-11T06:29:20;13.30;96.30
40538;DHT22;27925;41.874;12.526;2022-12-11T06:31:45;13.30;96.30
40538;DHT22;27925;41.874;12.526;2022-12-11T06:34:11;13.30;96.20
40538;DHT22;27925;41.874;12.526;2022-12-11T06:36:38;13.30;96.10
40538;DHT22;27925;41.874;12.526;2022-12-11T06:39:04;13.30;96.30
40538;DHT22;27925;41.874;12.526;2022-12-11T06:41:30;13.20;95.90
40538;DHT22;27925;41.874;12.526;2022-12-11T06:43:55;13.30;95.80
40538;DHT22;27925;41.874;12.526;2022-12-11T06:46:21;13.30;95.80
40538;DHT22;27925;41.874;12.526;2022-12-11T06:48:48;13.30;95.60
40538;DHT22;27925;41.874;12.526;2022-12-11T06:51:16;13.40;95.50
40538;DHT22;27925;41.874;12.526;2022-12-11T06:53:43;13.40;95.40
40538;DHT22;27925;41.874;12.526;2022-12-11T06:56:14;13.40;95.20
40538;DHT22;27925;41.874;12.526;2022-12-11T06:58:41;13.40;95.20
40538;DHT22;27925;41.874;12.526;2022-12-11T07:01:36;13.40;95.10
40538;DHT22;27925;41.874;12.526;2022-12-11T07:04:02;13.50;94.70
40538;DHT22;27925;41.874;12.526;2022-12-11T07:06:28;13.50;94.70
40538;DHT22;27925;41.874;12.526;2022-12-11T07:08:54;13.50;94.60
40538;DHT22;27925;41.874;12.526;2022-12-11T07:11:20;13.60;94.60
40538;DHT22;27925;41.874;12.526;2022-12-11T07:13:47;13.60;94.50
40538;DHT22;27925;41.874;12.526;2022-12-11T07:16:15;13.60;94.40
40538;DHT22;27925;41.874;12.526;2022-12-11T07:18:46;13.60;94.20
40538;DHT22;27925;41.874;12.526;2022-12-11T07:21:13;13.70;94.20
40538;DHT22;27925;41.874;12.526;2022-12-11T07:23:39;13.70;94.00
40538;DHT22;27925;41.874;12.526;2022-12-11T07:26:07;13.70;94.00
40538;DHT22;27925;41.874;12.526;2022-12-11T07:28:33;13.70;93.80
40538;DHT22;27925;41.874;12.526;2022-12-11T07:31:03;13.70;93.80
40538;DHT22;27925;41.874;12.526;2022-12-11T07:33:29;13.70;93.70
40538;DHT22;27925;41.874;12.526;2022-12-11T07:35:55;13.70;93.60
40538;DHT22;27925;41.874;12.526;2022-12-11T07:38:20;13.70;93.60
40538;DHT22;27925;41.874;12.526;2022-12-11T07:40:46;13.70;93.40
40538;DHT22;27925;41.874;12.526;2022-12-11T07:43:12;13.70;93.40
40538;DHT22;27925;41.874;12.526;2022-12-11T07:45:37;13.70;93.10
40538;DHT22;27925;41.874;12.526;2022-12-11T07:48:04;13.80;93.00
40538;DHT22;27925;41.874;12.526;2022-12-11T07:50:30;13.90;92.80
40538;DHT22;27925;41.874;12.526;2022-12-11T07:52:55;14.00;92.60
40538;DHT22;27925;41.874;12.526;2022-12-11T07:55:21;14.00;92.60
40538;DHT22;27925;41.874;12.526;2022-12-11T07:57:47;14.10;92.40
40538;DHT22;27925;41.874;12.526;2022-12-11T08:00:13;14.10;92.30
40538;DHT22;27925;41.874;12.526;2022-12-11T08:02:38;14.20;92.00
40538;DHT22;27925;41.874;12.526;2022-12-11T08:05:04;14.20;91.70
40538;DHT22;27925;41.874;12.526;2022-12-11T08:07:33;14.30;91.60
40538;DHT22;27925;41.874;12.526;2022-12-11T08:09:59;14.40;91.50
40538;DHT22;27925;41.874;12.526;2022-12-11T08:12:25;14.40;91.30
40538;DHT22;27925;41.874;12.526;2022-12-11T08:14:51;14.50;91.20
40538;DHT22;27925;41.874;12.526;2022-12-11T08:17:16;14.40;91.00
40538;DHT22;27925;41.874;12.526;2022-12-11T08:19:42;14.40;90.90
40538;DHT22;27925;41.874;12.526;2022-12-11T08:22:08;14.40;90.90
40538;DHT22;27925;41.874;12.526;2022-12-11T08:24:33;14.40;91.20
40538;DHT22;27925;41.874;12.526;2022-12-11T08:26:59;14.40;90.80
40538;DHT22;27925;41.874;12.526;2022-12-11T08:29:25;14.40;90.70
40538;DHT22;27925;41.874;12.526;2022-12-11T08:31:51;14.50;90.80
40538;DHT22;27925;41.874;12.526;2022-12-11T08:34:16;14.50;90.60
40538;DHT22;27925;41.874;12.526;2022-12-11T08:36:42;14.50;90.50
40538;DHT22;27925;41.874;12.526;2022-12-11T08:39:09;14.50;90.30
40538;DHT22;27925;41.874;12.526;2022-12-11T08:41:34;14.60;90.10
40538;DHT22;27925;41.874;12.526;2022-12-11T08:44:00;14.60;90.00
40538;DHT22;27925;41.874;12.526;2022-12-11T08:46:28;14.60;90.00
40538;DHT22;27925;41.874;12.526;2022-12-11T08:48:54;14.70;90.00
40538;DHT22;27925;41.874;12.526;2022-12-11T08:51:22;14.70;89.60
40538;DHT22;27925;41.874;12.526;2022-12-11T08:53:48;14.70;89.20
40538;DHT22;27925;41.874;12.526;2022-12-11T08:56:17;14.80;89.30
40538;DHT22;27925;41.874;12.526;2022-12-11T08:58:44;14.80;89.10
40538;DHT22;27925;41.874;12.526;2022-12-11T09:01:16;14.90;88.90
40538;DHT22;27925;41.874;12.526;2022-12-11T09:03:42;14.90;88.50
40538;DHT22;27925;41.874;12.526;2022-12-11T09:06:10;15.00;88.30
40538;DHT22;27925;41.874;12.526;2022-12-11T09:08:36;15.10;87.90
40538;DHT22;27925;41.874;12.526;2022-12-11T09:11:13;15.20;87.50
40538;DHT22;27925;41.874;12.526;2022-12-11T09:13:39;15.30;87.10
40538;DHT22;27925;41.874;12.526;2022-12-11T09:16:10;15.30;86.30
40538;DHT22;27925;41.874;12.526;2022-12-11T09:18:37;15.30;86.30
40538;DHT22;27925;41.874;12.526;2022-12-11T09:21:09;15.30;86.50
40538;DHT22;27925;41.874;12.526;2022-12-11T09:23:38;15.30;86.30
40538;DHT22;27925;41.874;12.526;2022-12-11T09:26:05;15.40;86.10
40538;DHT22;27925;41.874;12.526;2022-12-11T09:28:31;15.50;85.70
40538;DHT22;27925;41.874;12.526;2022-12-11T09:30:57;15.50;85.20
40538;DHT22;27925;41.874;12.526;2022-12-11T09:33:23;15.70;85.70
40538;DHT22;27925;41.874;12.526;2022-12-11T09:35:59;15.80;84.60
40538;DHT22;27925;41.874;12.526;2022-12-11T09:38:25;15.90;84.30
40538;DHT22;27925;41.874;12.526;2022-12-11T09:40:51;16.00;83.60
40538;DHT22;27925;41.874;12.526;2022-12-11T09:43:40;16.10;82.70
40538;DHT22;27925;41.874;12.526;2022-12-11T09:46:10;16.20;82.00
40538;DHT22;27925;41.874;12.526;2022-12-11T09:48:47;16.20;81.40
40538;DHT22;27925;41.874;12.526;2022-12-11T09:51:26;16.20;81.50
40538;DHT22;27925;41.874;12.526;2022-12-11T09:53:54;16.20;81.10
40538;DHT22;27925;41.874;12.526;2022-12-11T09:56:26;16.20;80.30
40538;DHT22;27925;41.874;12.526;2022-12-11T10:01:45;16.10;80.10
40538;DHT22;27925;41.874;12.526;2022-12-11T10:04:19;16.00;80.30
40538;DHT22;27925;41.874;12.526;2022-12-11T10:09:48;15.80;75.90
40538;DHT22;27925;41.874;12.526;2022-12-11T10:15:30;15.90;78.30
40538;DHT22;27925;41.874;12.526;2022-12-11T10:18:00;16.00;77.70
40538;DHT22;27925;41.874;12.526;2022-12-11T10:20:30;16.00;76.90
40538;DHT22;27925;41.874;12.526;2022-12-11T10:23:00;16.10;75.20
40538;DHT22;27925;41.874;12.526;2022-12-11T10:25:31;16.20;74.60
40538;DHT22;27925;41.874;12.526;2022-12-11T10:28:01;16.30;73.60
40538;DHT22;27925;41.874;12.526;2022-12-11T10:30:36;16.30;73.10
40538;DHT22;27925;41.874;12.526;2022-12-11T10:35:54;16.40;73.10
40538;DHT22;27925;41.874;12.526;2022-12-11T10:38:27;16.60;72.70
40538;DHT22;27925;41.874;12.526;2022-12-11T10:41:16;16.70;72.10
40538;DHT22;27925;41.874;12.526;2022-12-11T10:43:45;16.70;71.50
40538;DHT22;27925;41.874;12.526;2022-12-11T10:46:20;16.60;71.30
40538;DHT22;27925;41.874;12.526;2022-12-11T10:48:48;16.60;70.60
40538;DHT22;27925;41.874;12.526;2022-12-11T10:51:14;16.50;70.30
40538;DHT22;27925;41.874;12.526;2022-12-11T10:53:41;16.40;70.10
40538;DHT22;27925;41.874;12.526;2022-12-11T10:56:10;16.30;69.30
40538;DHT22;27925;41.874;12.526;2022-12-11T10:58:46;16.20;69.70
40538;DHT22;27925;41.874;12.526;2022-12-11T11:01:15;16.10;69.90
40538;DHT22;27925;41.874;12.526;2022-12-11T11:04:41;16.10;69.80
40538;DHT22;27925;41.874;12.526;2022-12-11T11:06:42;16.00;69.90
40538;DHT22;27925;41.874;12.526;2022-12-11T11:09:40;16.00;70.40
40538;DHT22;27925;41.874;12.526;2022-12-11T11:12:24;16.00;69.70
40538;DHT22;27925;41.874;12.526;2022-12-11T11:15:01;16.00;70.10
40538;DHT22;27925;41.874;12.526;2022-12-11T11:17:30;16.00;70.20
40538;DHT22;27925;41.874;12.526;2022-12-11T11:20:00;16.10;69.50
40538;DHT22;27925;41.874;12.526;2022-12-11T11:22:30;16.10;69.50
40538;DHT22;27925;41.874;12.526;2022-12-11T11:24:57;16.10;69.30
40538;DHT22;27925;41.874;12.526;2022-12-11T11:27:30;16.10;68.90
40538;DHT22;27925;41.874;12.526;2022-12-11T11:30:02;16.10;69.60
40538;DHT22;27925;41.874;12.526;2022-12-11T11:32:33;16.20;68.20
40538;DHT22;27925;41.874;12.526;2022-12-11T11:37:45;16.30;68.70
40538;DHT22;27925;41.874;12.526;2022-12-11T11:40:28;16.30;67.60
40538;DHT22;27925;41.874;12.526;2022-12-11T11:43:12;16.50;68.20
40538;DHT22;27925;41.874;12.526;2022-12-11T11:51:31;16.70;65.60
40538;DHT22;27925;41.874;12.526;2022-12-11T11:54:02;16.70;65.40
40538;DHT22;27925;41.874;12.526;2022-12-11T11:56:33;16.60;64.60
40538;DHT22;27925;41.874;12.526;2022-12-11T11:59:26;16.50;64.70
40538;DHT22;27925;41.874;12.526;2022-12-11T12:01:55;16.50;64.60
40538;DHT22;27925;41.874;12.526;2022-12-11T12:04:21;16.50;64.60
40538;DHT22;27925;41.874;12.526;2022-12-11T12:07:07;16.40;64.60
40538;DHT22;27925;41.874;12.526;2022-12-11T12:16:15;16.30;63.60
40538;DHT22;27925;41.874;12.526;2022-12-11T12:18:31;16.40;64.40
40538;DHT22;27925;41.874;12.526;2022-12-11T12:23:57;16.40;63.90
40538;DHT22;27925;41.874;12.526;2022-12-11T12:26:33;16.20;63.80
40538;DHT22;27925;41.874;12.526;2022-12-11T12:39:28;15.90;64.50
40538;DHT22;27925;41.874;12.526;2022-12-11T12:44:57;16.00;64.80
40538;DHT22;27925;41.874;12.526;2022-12-11T12:47:26;16.10;65.10
40538;DHT22;27925;41.874;12.526;2022-12-11T12:49:53;16.20;64.50
40538;DHT22;27925;41.874;12.526;2022-12-11T12:54:54;16.40;64.80
40538;DHT22;27925;41.874;12.526;2022-12-11T12:57:45;16.40;64.70
40538;DHT22;27925;41.874;12.526;2022-12-11T13:00:12;16.40;64.50
40538;DHT22;27925;41.874;12.526;2022-12-11T13:02:49;16.40;64.50
40538;DHT22;27925;41.874;12.526;2022-12-11T13:05:31;16.40;64.70
40538;DHT22;27925;41.874;12.526;2022-12-11T13:08:00;16.40;65.70
40538;DHT22;27925;41.874;12.526;2022-12-11T13:10:31;16.40;64.50
40538;DHT22;27925;41.874;12.526;2022-12-11T13:12:58;16.40;64.60
40538;DHT22;27925;41.874;12.526;2022-12-11T13:15:37;16.40;64.80
40538;DHT22;27925;41.874;12.526;2022-12-11T13:20:55;16.10;64.70
40538;DHT22;27925;41.874;12.526;2022-12-11T13:23:32;16.00;64.50
40538;DHT22;27925;41.874;12.526;2022-12-11T13:26:01;16.00;65.10
40538;DHT22;27925;41.874;12.526;2022-12-11T13:33:46;16.00;65.60
40538;DHT22;27925;41.874;12.526;2022-12-11T13:38:48;16.00;65.10
40538;DHT22;27925;41.874;12.526;2022-12-11T13:41:17;15.90;65.80
40538;DHT22;27925;41.874;12.526;2022-12-11T13:43:44;15.90;65.50
40538;DHT22;27925;41.874;12.526;2022-12-11T13:46:12;15.90;65.50
40538;DHT22;27925;41.874;12.526;2022-12-11T13:48:51;15.90;65.70
40538;DHT22;27925;41.874;12.526;2022-12-11T13:51:26;15.80;65.70
40538;DHT22;27925;41.874;12.526;2022-12-11T13:54:03;15.70;65.30
40538;DHT22;27925;41.874;12.526;2022-12-11T13:56:29;15.70;65.40
40538;DHT22;27925;41.874;12.526;2022-12-11T13:58:55;15.70;65.60
40538;DHT22;27925;41.874;12.526;2022-12-11T14:01:24;15.60;65.80
40538;DHT22;27925;41.874;12.526;2022-12-11T14:04:15;15.60;65.50
40538;DHT22;27925;41.874;12.526;2022-12-11T14:06:42;15.60;65.50
40538;DHT22;27925;41.874;12.526;2022-12-11T14:09:08;15.60;65.40
40538;DHT22;27925;41.874;12.526;2022-12-11T14:11:36;15.60;65.50
40538;DHT22;27925;41.874;12.526;2022-12-11T14:14:06;15.60;65.80
40538;DHT22;27925;41.874;12.526;2022-12-11T14:16:33;15.50;65.60
40538;DHT22;27925;41.874;12.526;2022-12-11T14:19:05;15.60;65.90
40538;DHT22;27925;41.874;12.526;2022-12-11T14:21:31;15.50;65.70
40538;DHT22;27925;41.874;12.526;2022-12-11T14:23:59;15.50;65.90
40538;DHT22;27925;41.874;12.526;2022-12-11T14:26:33;15.40;65.60
40538;DHT22;27925;41.874;12.526;2022-12-11T14:29:02;15.30;65.50
40538;DHT22;27925;41.874;12.526;2022-12-11T14:31:37;15.30;65.80
40538;DHT22;27925;41.874;12.526;2022-12-11T14:34:12;15.30;66.30
40538;DHT22;27925;41.874;12.526;2022-12-11T14:36:38;15.30;65.60
40538;DHT22;27925;41.874;12.526;2022-12-11T14:39:33;15.30;65.20
40538;DHT22;27925;41.874;12.526;2022-12-11T14:42:13;15.20;65.40
40538;DHT22;27925;41.874;12.526;2022-12-11T14:45:03;15.20;66.30
40538;DHT22;27925;41.874;12.526;2022-12-11T14:47:37;15.20;66.00
40538;DHT22;27925;41.874;12.526;2022-12-11T14:53:35;15.20;66.70
40538;DHT22;27925;41.874;12.526;2022-12-11T14:56:05;15.10;65.50
40538;DHT22;27925;41.874;12.526;2022-12-11T14:58:32;15.10;66.50
40538;DHT22;27925;41.874;12.526;2022-12-11T15:01:20;15.10;65.70
40538;DHT22;27925;41.874;12.526;2022-12-11T15:03:46;15.00;66.00
40538;DHT22;27925;41.874;12.526;2022-12-11T15:06:28;15.00;66.30
40538;DHT22;27925;41.874;12.526;2022-12-11T15:08:55;14.90;66.10
40538;DHT22;27925;41.874;12.526;2022-12-11T15:11:21;14.90;66.00
40538;DHT22;27925;41.874;12.526;2022-12-11T15:13:59;14.90;66.00
40538;DHT22;27925;41.874;12.526;2022-12-11T15:16:31;14.80;66.60
40538;DHT22;27925;41.874;12.526;2022-12-11T15:18:59;14.80;66.20
40538;DHT22;27925;41.874;12.526;2022-12-11T15:21:35;14.70;66.30
40538;DHT22;27925;41.874;12.526;2022-12-11T15:24:03;14.70;66.40
40538;DHT22;27925;41.874;12.526;2022-12-11T15:26:45;14.70;66.50
40538;DHT22;27925;41.874;12.526;2022-12-11T15:32:19;14.60;67.50
40538;DHT22;27925;41.874;12.526;2022-12-11T15:34:48;14.60;67.30
40538;DHT22;27925;41.874;12.526;2022-12-11T15:37:30;14.60;67.40
40538;DHT22;27925;41.874;12.526;2022-12-11T15:39:58;14.50;67.80
40538;DHT22;27925;41.874;12.526;2022-12-11T15:42:34;14.50;67.50
40538;DHT22;27925;41.874;12.526;2022-12-11T15:45:02;14.40;67.70
40538;DHT22;27925;41.874;12.526;2022-12-11T15:47:30;14.40;67.50
40538;DHT22;27925;41.874;12.526;2022-12-11T15:49:58;14.40;67.90
40538;DHT22;27925;41.874;12.526;2022-12-11T15:52:25;14.40;68.10
40538;DHT22;27925;41.874;12.526;2022-12-11T15:54:50;14.40;68.10
40538;DHT22;27925;41.874;12.526;2022-12-11T15:57:19;14.40;68.60
40538;DHT22;27925;41.874;12.526;2022-12-11T15:59:46;14.40;68.50
40538;DHT22;27925;41.874;12.526;2022-12-11T16:02:13;14.40;68.40
40538;DHT22;27925;41.874;12.526;2022-12-11T16:04:39;14.40;68.40
40538;DHT22;27925;41.874;12.526;2022-12-11T16:07:15;14.30;68.40
40538;DHT22;27925;41.874;12.526;2022-12-11T16:09:41;14.30;68.70
40538;DHT22;27925;41.874;12.526;2022-12-11T16:12:07;14.30;68.50
40538;DHT22;27925;41.874;12.526;2022-12-11T16:14:33;14.20;68.60
40538;DHT22;27925;41.874;12.526;2022-12-11T16:17:03;14.20;68.80
40538;DHT22;27925;41.874;12.526;2022-12-11T16:19:29;14.20;69.30
40538;DHT22;27925;41.874;12.526;2022-12-11T16:21:54;14.20;69.20
40538;DHT22;27925;41.874;12.526;2022-12-11T16:24:20;14.20;69.30
40538;DHT22;27925;41.874;12.526;2022-12-11T16:26:47;14.20;69.00
40538;DHT22;27925;41.874;12.526;2022-12-11T16:29:12;14.20;69.20
40538;DHT22;27925;41.874;12.526;2022-12-11T16:31:38;14.20;69.50
40538;DHT22;27925;41.874;12.526;2022-12-11T16:34:04;14.10;69.50
40538;DHT22;27925;41.874;12.526;2022-12-11T16:36:29;14.10;69.50
40538;DHT22;27925;41.874;12.526;2022-12-11T16:38:55;14.10;69.40
40538;DHT22;27925;41.874;12.526;2022-12-11T16:41:22;14.20;69.20
40538;DHT22;27925;41.874;12.526;2022-12-11T16:43:48;14.10;69.10
40538;DHT22;27925;41.874;12.526;2022-12-11T16:46:21;14.20;69.20
40538;DHT22;27925;41.874;12.526;2022-12-11T16:48:49;14.10;69.10
40538;DHT22;27925;41.874;12.526;2022-12-11T16:51:15;14.00;69.10
40538;DHT22;27925;41.874;12.526;2022-12-11T16:53:41;14.00;69.20
40538;DHT22;27925;41.874;12.526;2022-12-11T16:56:08;13.90;69.30